Time;durP1;ratioP1;P1;durP2;ratioP2;P2;SDS_P1;SDS_P2;PMS_P1;PMS_P2;Temp;Humidity;BMP_temperature;BMP_pressure;BME280_temperature;BME280_humidity;BME280_pressure;Samples;Min_cycle;Max_cycle;Signal;HPM_P1;HPM_P2
2022/04/06 00:00:46;;;;;;;14.38;10.20;;;9.90;1.00;;;;;;4972669;28;20027;-84
2022/04/06 00:03:12;;;;;;;12.82;9.68;;;9.80;1.00;;;;;;4973146;28;20113;-84
2022/04/06 00:05:38;;;;;;;12.68;9.50;;;9.80;1.00;;;;;;4973005;28;20117;-84
2022/04/06 00:08:04;;;;;;;11.25;9.38;;;9.70;1.00;;;;;;4955411;28;20046;-84
2022/04/06 00:10:31;;;;;;;11.40;9.23;;;9.60;1.00;;;;;;4973021;28;20623;-84
2022/04/06 00:12:59;;;;;;;12.45;10.02;;;9.80;1.00;;;;;;4973175;28;20113;-84
2022/04/06 00:15:25;;;;;;;12.48;10.60;;;9.60;1.00;;;;;;4971856;28;20130;-84
2022/04/06 00:17:51;;;;;;;13.40;10.77;;;9.70;1.00;;;;;;4972927;28;20403;-84
2022/04/06 00:20:17;;;;;;;12.52;11.23;;;9.90;1.00;;;;;;4972527;28;20042;-84
2022/04/06 00:22:43;;;;;;;11.20;9.95;;;10.10;1.00;;;;;;4972990;28;20041;-84
2022/04/06 00:25:09;;;;;;;12.38;10.30;;;10.10;1.00;;;;;;4972652;28;20037;-85
2022/04/06 00:27:35;;;;;;;13.65;10.75;;;10.20;1.00;;;;;;4972304;28;20031;-84
2022/04/06 00:30:02;;;;;;;12.35;10.43;;;10.10;1.00;;;;;;4954912;28;20611;-84
2022/04/06 00:32:28;;;;;;;13.18;10.70;;;10.40;1.00;;;;;;4972353;28;20149;-84
2022/04/06 00:37:38;;;;;;;11.98;9.43;;;10.00;1.00;;;;;;4972543;28;20061;-84
2022/04/06 00:40:04;;;;;;;12.80;10.20;;;10.10;1.00;;;;;;4973241;28;20395;-85
2022/04/06 00:42:30;;;;;;;11.65;9.75;;;10.00;1.00;;;;;;4972403;28;20027;-84
2022/04/06 00:44:56;;;;;;;12.93;10.23;;;9.90;1.00;;;;;;4971582;28;20041;-84
2022/04/06 00:47:22;;;;;;;13.70;9.65;;;10.20;1.00;;;;;;4972375;28;20025;-84
2022/04/06 00:49:47;;;;;;;11.63;9.45;;;10.20;1.00;;;;;;4972031;28;20042;-84
2022/04/06 00:52:13;;;;;;;11.68;9.48;;;10.30;1.00;;;;;;4972753;28;20514;-84
2022/04/06 00:54:39;;;;;;;12.15;10.07;;;10.30;1.00;;;;;;4972222;28;20110;-84
2022/04/06 00:57:05;;;;;;;12.15;10.10;;;10.20;1.00;;;;;;4971705;28;20045;-84
2022/04/06 00:59:31;;;;;;;15.43;10.00;;;10.30;1.00;;;;;;4972043;28;20106;-85
2022/04/06 01:01:59;;;;;;;11.45;9.60;;;10.30;1.00;;;;;;4972033;28;20869;-84
2022/04/06 01:04:25;;;;;;;11.70;9.45;;;10.30;1.00;;;;;;4971944;28;20389;-84
2022/04/06 01:06:53;;;;;;;10.52;9.27;;;10.10;1.00;;;;;;4972864;28;20117;-84
2022/04/06 01:09:20;;;;;;;11.27;9.40;;;10.10;1.00;;;;;;4971741;28;20085;-84
2022/04/06 01:11:47;;;;;;;12.35;9.98;;;10.40;1.00;;;;;;4971994;28;20121;-84
2022/04/06 01:14:14;;;;;;;10.60;9.23;;;10.60;1.00;;;;;;4971519;28;20101;-85
2022/04/06 01:16:40;;;;;;;11.65;9.30;;;10.70;1.00;;;;;;4972032;28;20042;-84
2022/04/06 01:19:06;;;;;;;11.82;9.68;;;10.70;1.00;;;;;;4973125;28;20023;-85
2022/04/06 01:21:31;;;;;;;12.23;9.77;;;10.70;1.00;;;;;;4971875;28;20026;-84
2022/04/06 01:23:57;;;;;;;13.75;10.57;;;10.40;1.00;;;;;;4971581;28;20037;-84
2022/04/06 01:26:23;;;;;;;14.23;10.77;;;10.30;1.00;;;;;;4971884;28;20034;-85
2022/04/06 01:28:49;;;;;;;12.88;10.98;;;10.30;1.00;;;;;;4972133;28;20038;-85
2022/04/06 01:31:15;;;;;;;13.88;11.55;;;10.40;1.00;;;;;;4972613;28;20038;-84
2022/04/06 01:33:42;;;;;;;15.02;11.98;;;10.30;1.00;;;;;;4971676;28;20019;-84
2022/04/06 01:36:08;;;;;;;13.98;11.57;;;10.20;1.00;;;;;;4971981;28;20054;-84
2022/04/06 01:38:34;;;;;;;12.57;11.27;;;10.20;1.00;;;;;;4974494;28;20034;-84
2022/04/06 01:41:00;;;;;;;12.40;11.10;;;10.40;1.00;;;;;;4975427;28;20057;-84
2022/04/06 01:43:26;;;;;;;14.35;11.10;;;10.50;1.00;;;;;;4975691;28;20079;-84
2022/04/06 01:45:52;;;;;;;12.57;10.63;;;10.60;1.00;;;;;;4975569;28;20027;-84
2022/04/06 01:48:17;;;;;;;15.52;11.23;;;10.30;1.00;;;;;;4975752;28;20062;-84
2022/04/06 01:53:28;;;;;;;13.82;11.68;;;10.20;1.00;;;;;;4975442;28;20552;-84
2022/04/06 01:55:55;;;;;;;12.07;10.82;;;10.20;1.00;;;;;;4975398;28;20035;-84
2022/04/06 01:58:21;;;;;;;12.75;11.05;;;10.20;1.00;;;;;;4976154;28;20379;-84
2022/04/06 02:00:47;;;;;;;14.43;10.77;;;10.10;1.00;;;;;;4975289;28;20034;-84
2022/04/06 02:03:13;;;;;;;13.93;10.85;;;10.20;1.00;;;;;;4974916;28;20058;-85
2022/04/06 02:05:39;;;;;;;11.80;10.70;;;10.40;1.00;;;;;;4974926;28;20035;-85
2022/04/06 02:08:05;;;;;;;12.95;11.55;;;10.60;1.00;;;;;;4975430;28;20491;-84
2022/04/06 02:10:30;;;;;;;12.90;11.55;;;10.70;1.00;;;;;;4974398;28;20042;-84
2022/04/06 02:12:58;;;;;;;13.93;11.10;;;10.70;1.00;;;;;;4975437;28;20553;-84
2022/04/06 02:15:25;;;;;;;12.70;11.30;;;10.80;1.00;;;;;;4974657;28;20399;-84
2022/04/06 02:17:51;;;;;;;12.77;11.45;;;10.60;1.00;;;;;;4974658;28;20483;-84
2022/04/06 02:20:17;;;;;;;13.00;11.27;;;10.40;1.00;;;;;;4974545;28;20050;-84
2022/04/06 02:22:43;;;;;;;12.85;10.80;;;10.30;1.00;;;;;;4974374;28;20097;-85
2022/04/06 02:25:12;;;;;;;11.88;10.57;;;10.40;1.00;;;;;;4975381;28;20475;-84
2022/04/06 02:27:49;;;;;;;12.52;11.13;;;10.40;1.00;;;;;;4974473;28;20026;-85
2022/04/06 02:30:15;;;;;;;11.35;10.15;;;10.40;1.00;;;;;;4957471;28;20384;-84
2022/04/06 02:32:40;;;;;;;14.27;10.98;;;10.20;1.00;;;;;;4974386;28;20109;-84
2022/04/06 02:35:07;;;;;;;14.43;10.52;;;10.00;1.00;;;;;;4974505;28;20118;-83
2022/04/06 02:37:32;;;;;;;12.02;10.18;;;10.00;1.00;;;;;;4957281;28;20389;-84
2022/04/06 02:39:58;;;;;;;13.48;11.32;;;10.00;1.00;;;;;;4974874;28;20082;-84
2022/04/06 02:42:23;;;;;;;13.38;10.30;;;10.00;1.00;;;;;;4974339;28;20027;-84
2022/04/06 02:44:49;;;;;;;13.50;10.60;;;10.10;1.00;;;;;;4974019;28;20031;-84
2022/04/06 02:47:15;;;;;;;15.20;10.43;;;10.10;1.00;;;;;;4974654;28;20766;-85
2022/04/06 02:49:40;;;;;;;14.55;10.75;;;10.00;1.00;;;;;;4972792;28;20472;-84
2022/04/06 02:52:07;;;;;;;16.90;10.93;;;9.90;1.00;;;;;;4975228;28;20034;-84
2022/04/06 02:54:33;;;;;;;14.40;11.13;;;9.90;1.00;;;;;;4973988;28;20035;-84
2022/04/06 02:56:58;;;;;;;12.50;10.10;;;9.90;1.00;;;;;;4973947;28;20081;-84
2022/04/06 02:59:24;;;;;;;11.90;10.02;;;9.90;1.00;;;;;;4956657;28;20100;-84
2022/04/06 03:01:49;;;;;;;14.82;11.60;;;9.80;1.00;;;;;;4959042;28;20027;-84
2022/04/06 03:04:15;;;;;;;14.18;11.00;;;9.90;1.00;;;;;;4974456;28;20039;-84
2022/04/06 03:06:41;;;;;;;15.02;11.35;;;10.00;1.00;;;;;;4974250;28;20027;-84
2022/04/06 03:09:07;;;;;;;14.77;11.32;;;10.00;1.00;;;;;;4973832;28;20062;-85
2022/04/06 03:11:34;;;;;;;15.35;11.70;;;10.00;1.00;;;;;;4973805;28;20184;-84
2022/04/06 03:13:59;;;;;;;12.35;11.05;;;10.00;1.00;;;;;;4973998;28;20026;-84
2022/04/06 03:16:25;;;;;;;14.20;11.48;;;9.90;1.00;;;;;;4974208;28;20027;-85
2022/04/06 03:18:50;;;;;;;14.68;11.82;;;10.00;1.00;;;;;;4974542;28;20077;-85
2022/04/06 03:21:16;;;;;;;15.65;11.60;;;9.90;1.00;;;;;;4973555;28;20390;-84
2022/04/06 03:23:42;;;;;;;13.25;11.57;;;9.90;1.00;;;;;;4972980;28;20039;-84
2022/04/06 03:26:08;;;;;;;15.38;12.07;;;9.90;1.00;;;;;;4973500;28;20017;-84
2022/04/06 03:28:35;;;;;;;13.50;11.85;;;9.90;1.00;;;;;;4973866;28;20042;-84
2022/04/06 03:31:00;;;;;;;13.15;11.70;;;9.70;1.00;;;;;;4974267;28;20478;-85
2022/04/06 03:33:26;;;;;;;15.32;12.02;;;9.70;1.00;;;;;;4973147;28;20105;-84
2022/04/06 03:35:52;;;;;;;17.20;11.73;;;10.00;1.00;;;;;;4973162;28;20118;-85
2022/04/06 03:38:18;;;;;;;14.55;12.23;;;9.90;1.00;;;;;;4973246;28;20558;-84
2022/04/06 03:40:43;;;;;;;13.02;11.52;;;9.90;1.00;;;;;;4973250;28;20113;-84
2022/04/06 03:43:09;;;;;;;13.15;11.75;;;9.90;1.00;;;;;;4974205;28;20035;-84
2022/04/06 03:45:35;;;;;;;15.50;11.45;;;10.00;1.00;;;;;;4972579;28;20112;-85
2022/04/06 03:48:01;;;;;;;13.38;11.43;;;10.00;1.00;;;;;;4972697;28;20498;-84
2022/04/06 03:50:26;;;;;;;13.13;11.82;;;10.00;1.00;;;;;;4973231;28;20117;-84
2022/04/06 03:52:52;;;;;;;14.45;12.18;;;10.00;1.00;;;;;;4972531;28;20022;-85
2022/04/06 03:55:18;;;;;;;15.40;12.38;;;10.00;1.00;;;;;;4949640;29;20058;-85
2022/04/06 03:57:44;;;;;;;14.45;12.10;;;9.90;1.00;;;;;;4972880;28;20069;-84
2022/04/06 04:00:12;;;;;;;14.38;12.18;;;9.90;1.00;;;;;;4972998;28;20483;-84
2022/04/06 04:02:38;;;;;;;14.13;11.50;;;10.00;1.00;;;;;;4955438;28;20027;-83
2022/04/06 04:05:04;;;;;;;13.73;12.32;;;10.10;1.00;;;;;;4972665;28;20093;-85
2022/04/06 04:07:31;;;;;;;17.05;12.15;;;10.10;1.00;;;;;;4972390;28;20038;-84
2022/04/06 04:09:58;;;;;;;14.75;12.02;;;10.20;1.00;;;;;;4973294;28;20042;-85
2022/04/06 04:12:23;;;;;;;13.63;12.25;;;10.30;1.00;;;;;;4973224;28;20168;-84
2022/04/06 04:14:49;;;;;;;14.63;12.15;;;10.40;1.00;;;;;;4972810;28;20059;-85
2022/04/06 04:17:15;;;;;;;14.48;11.73;;;10.20;1.00;;;;;;4972264;28;20035;-84
2022/04/06 04:19:40;;;;;;;13.32;11.93;;;10.20;1.00;;;;;;4972875;28;20035;-84
2022/04/06 04:22:06;;;;;;;13.80;12.18;;;10.30;1.00;;;;;;4972851;28;20052;-84
2022/04/06 04:24:32;;;;;;;15.90;11.82;;;10.40;1.00;;;;;;4972293;28;20019;-84
2022/04/06 04:26:57;;;;;;;15.35;12.43;;;10.20;1.00;;;;;;4972931;28;20030;-84
2022/04/06 04:29:23;;;;;;;15.10;12.18;;;10.20;1.00;;;;;;4972703;28;20435;-84
2022/04/06 04:31:49;;;;;;;13.27;11.15;;;10.20;1.00;;;;;;4972202;28;20034;-84
2022/04/06 04:34:15;;;;;;;17.58;12.95;;;10.20;1.00;;;;;;4972937;28;20498;-84
2022/04/06 04:36:41;;;;;;;14.50;12.15;;;10.20;1.00;;;;;;4972187;28;20050;-84
2022/04/06 04:39:07;;;;;;;15.60;12.63;;;10.30;1.00;;;;;;4972108;28;20475;-84
2022/04/06 04:41:33;;;;;;;13.27;11.98;;;10.40;1.00;;;;;;4972612;28;20041;-84
2022/04/06 04:43:59;;;;;;;13.43;11.68;;;10.50;1.00;;;;;;4972263;28;20042;-85
2022/04/06 04:46:24;;;;;;;15.07;11.77;;;10.20;1.00;;;;;;4972553;28;20031;-84
2022/04/06 04:48:50;;;;;;;16.30;12.35;;;10.20;1.00;;;;;;4972361;28;20682;-85
2022/04/06 04:51:16;;;;;;;15.02;12.98;;;10.30;1.00;;;;;;4971991;28;20408;-85
2022/04/06 04:53:41;;;;;;;15.13;13.57;;;10.30;1.00;;;;;;4965541;28;20106;-85
2022/04/06 04:56:07;;;;;;;16.65;12.90;;;10.10;1.00;;;;;;4972612;28;20042;-85
2022/04/06 04:58:33;;;;;;;20.38;13.38;;;10.00;1.00;;;;;;4972299;28;20050;-85
2022/04/06 05:00:59;;;;;;;17.23;12.32;;;10.10;1.00;;;;;;4972497;28;20027;-84
2022/04/06 05:03:25;;;;;;;17.63;13.35;;;10.20;1.00;;;;;;4972052;28;20031;-84
2022/04/06 05:05:53;;;;;;;16.52;13.38;;;10.20;1.00;;;;;;4971617;28;20530;-85
2022/04/06 05:08:23;;;;;;;15.57;12.93;;;10.10;1.00;;;;;;4972523;28;20023;-85
2022/04/06 05:10:49;;;;;;;15.27;13.63;;;10.10;1.00;;;;;;4972522;28;20038;-85
2022/04/06 05:13:17;;;;;;;16.52;13.63;;;10.20;1.00;;;;;;4975003;28;20434;-85
2022/04/06 05:15:43;;;;;;;16.73;13.07;;;10.30;1.00;;;;;;4975648;28;20129;-85
2022/04/06 05:18:09;;;;;;;18.50;13.75;;;10.30;1.00;;;;;;4975786;28;20043;-85
2022/04/06 05:20:34;;;;;;;18.58;13.43;;;10.50;1.00;;;;;;4975067;28;20039;-85
2022/04/06 05:23:00;;;;;;;18.15;13.35;;;10.40;1.00;;;;;;4975008;28;20074;-84
2022/04/06 05:25:26;;;;;;;15.32;13.45;;;10.30;1.00;;;;;;4976051;28;20395;-83
2022/04/06 05:27:53;;;;;;;18.40;13.55;;;10.20;1.00;;;;;;4976065;28;20038;-83
2022/04/06 05:30:21;;;;;;;17.15;13.70;;;10.00;1.00;;;;;;4976076;28;20051;-82
2022/04/06 05:32:50;;;;;;;17.63;13.48;;;10.00;1.00;;;;;;4975519;28;20105;-83
2022/04/06 05:35:16;;;;;;;18.75;13.25;;;10.20;1.00;;;;;;4975036;28;20103;-82
2022/04/06 05:37:43;;;;;;;15.73;13.23;;;10.30;1.00;;;;;;4975596;28;20056;-83
2022/04/06 05:40:10;;;;;;;17.52;13.77;;;10.40;1.00;;;;;;4975991;28;20110;-86
2022/04/06 05:42:37;;;;;;;16.05;13.27;;;10.40;1.00;;;;;;4975613;28;20506;-85
2022/04/06 05:45:04;;;;;;;17.55;13.65;;;10.50;1.00;;;;;;4975487;28;20078;-85
2022/04/06 05:47:30;;;;;;;19.08;14.20;;;10.30;1.00;;;;;;4975207;28;20030;-85
2022/04/06 05:49:56;;;;;;;19.38;14.50;;;10.20;1.00;;;;;;4975206;28;20458;-85
2022/04/06 05:52:21;;;;;;;17.85;14.45;;;10.30;1.00;;;;;;4975953;28;20101;-85
2022/04/06 05:54:47;;;;;;;21.13;14.50;;;10.20;1.00;;;;;;4975862;28;20065;-85
2022/04/06 05:57:13;;;;;;;26.35;14.70;;;10.30;1.00;;;;;;4974824;28;20034;-86
2022/04/06 05:59:40;;;;;;;17.40;13.70;;;10.30;1.00;;;;;;4975249;28;20025;-85
2022/04/06 06:02:09;;;;;;;18.10;13.43;;;10.50;1.00;;;;;;4975214;28;20419;-85
2022/04/06 06:04:34;;;;;;;19.50;13.10;;;10.60;1.00;;;;;;4974686;28;20439;-85
2022/04/06 06:07:00;;;;;;;21.00;13.85;;;10.70;1.00;;;;;;4975701;28;20041;-86
2022/04/06 06:09:27;;;;;;;17.15;14.13;;;10.60;1.00;;;;;;4975118;28;20030;-86
2022/04/06 06:11:54;;;;;;;19.92;13.65;;;10.50;1.00;;;;;;4975026;28;20035;-85
2022/04/06 06:14:20;;;;;;;31.75;19.05;;;10.50;1.00;;;;;;4957731;28;20050;-85
2022/04/06 06:16:46;;;;;;;21.92;14.98;;;10.50;1.00;;;;;;4974709;28;20419;-85
2022/04/06 06:19:11;;;;;;;19.50;13.95;;;10.40;1.00;;;;;;4975488;28;20034;-86
2022/04/06 06:21:37;;;;;;;19.17;15.52;;;10.30;1.00;;;;;;4974587;28;20039;-85
2022/04/06 06:24:06;;;;;;;16.92;13.70;;;10.40;1.00;;;;;;4973572;28;20027;-82
2022/04/06 06:26:37;;;;;;;16.60;13.57;;;10.60;1.00;;;;;;4974439;28;20042;-84
2022/04/06 06:29:03;;;;;;;18.27;13.75;;;10.60;1.00;;;;;;4975499;28;20113;-86
2022/04/06 06:31:30;;;;;;;16.80;14.18;;;10.80;1.00;;;;;;4957526;28;20035;-84
2022/04/06 06:33:57;;;;;;;20.85;13.93;;;10.80;1.00;;;;;;4973742;28;20502;-85
2022/04/06 06:36:25;;;;;;;20.58;14.18;;;10.70;1.00;;;;;;4957002;28;20105;-85
2022/04/06 06:38:52;;;;;;;22.25;14.07;;;10.90;1.00;;;;;;4974667;28;20399;-85
2022/04/06 06:41:18;;;;;;;18.75;13.55;;;10.90;1.00;;;;;;4974099;28;20046;-85
2022/04/06 06:43:45;;;;;;;16.23;12.88;;;11.00;1.00;;;;;;4974766;28;20031;-85
2022/04/06 06:46:11;;;;;;;16.35;13.40;;;10.70;1.00;;;;;;4974910;28;20479;-85
2022/04/06 06:48:37;;;;;;;18.08;13.18;;;10.80;1.00;;;;;;4956978;28;20031;-85
2022/04/06 06:51:04;;;;;;;19.30;13.23;;;10.80;1.00;;;;;;4974025;28;20074;-84
2022/04/06 06:53:30;;;;;;;19.75;14.05;;;10.80;1.00;;;;;;4975094;28;20014;-85
2022/04/06 06:55:55;;;;;;;16.60;14.30;;;11.00;1.00;;;;;;4973799;28;20160;-85
2022/04/06 06:58:21;;;;;;;19.45;13.63;;;11.10;1.00;;;;;;4974751;28;20042;-85
2022/04/06 07:00:47;;;;;;;19.13;13.30;;;11.20;1.00;;;;;;4973946;28;20053;-85
2022/04/06 07:03:13;;;;;;;13.70;12.15;;;11.10;1.00;;;;;;4973781;28;20041;-85
2022/04/06 07:05:38;;;;;;;14.38;11.85;;;11.10;1.00;;;;;;4973767;28;20035;-85
2022/04/06 07:08:04;;;;;;;14.63;11.65;;;11.10;1.00;;;;;;4974234;28;20026;-85
2022/04/06 07:10:30;;;;;;;16.58;12.18;;;11.20;1.00;;;;;;4974587;28;20352;-85
2022/04/06 07:12:56;;;;;;;14.93;12.23;;;11.10;1.00;;;;;;4974380;28;20054;-85
2022/04/06 07:15:23;;;;;;;17.42;12.85;;;11.30;1.00;;;;;;4973201;28;20031;-84
2022/04/06 07:17:56;;;;;;;13.80;12.20;;;11.40;1.00;;;;;;4973584;28;20077;-85
2022/04/06 07:20:24;;;;;;;18.13;13.30;;;11.20;1.00;;;;;;4974101;28;20050;-84
2022/04/06 07:22:50;;;;;;;21.30;13.23;;;11.20;1.00;;;;;;4973728;28;20050;-85
2022/04/06 07:25:16;;;;;;;16.95;13.05;;;11.30;1.00;;;;;;4974489;28;20110;-84
2022/04/06 07:27:42;;;;;;;17.13;12.55;;;11.10;1.00;;;;;;4973416;28;20106;-84
2022/04/06 07:30:10;;;;;;;18.95;13.18;;;11.10;1.00;;;;;;4973357;28;20043;-85
2022/04/06 07:32:36;;;;;;;17.80;12.00;;;11.10;1.00;;;;;;4973691;28;20023;-85
2022/04/06 07:35:06;;;;;;;23.48;13.07;;;11.20;1.00;;;;;;4972927;28;20035;-85
2022/04/06 07:37:39;;;;;;;14.68;13.18;;;11.20;1.00;;;;;;4973323;28;20043;-85
2022/04/06 07:40:07;;;;;;;18.85;12.55;;;11.20;1.00;;;;;;4971914;28;20376;-85
2022/04/06 07:42:35;;;;;;;18.77;11.82;;;11.30;1.00;;;;;;4973653;28;20101;-85
2022/04/06 07:45:01;;;;;;;12.98;11.43;;;11.40;1.00;;;;;;4972565;28;20039;-85
2022/04/06 07:47:31;;;;;;;17.70;12.23;;;11.50;1.00;;;;;;4973800;28;20023;-85
2022/04/06 07:50:03;;;;;;;20.85;13.38;;;11.50;1.00;;;;;;4973422;28;20396;-85
2022/04/06 07:52:29;;;;;;;15.32;12.07;;;11.80;1.00;;;;;;4973248;28;20030;-85
2022/04/06 07:54:55;;;;;;;20.90;12.50;;;11.70;1.00;;;;;;4972435;28;20027;-85
2022/04/06 07:57:22;;;;;;;13.35;11.93;;;11.90;1.00;;;;;;4973890;28;20121;-85
2022/04/06 07:59:48;;;;;;;15.73;11.55;;;11.90;1.00;;;;;;4972360;28;20105;-85
2022/04/06 08:02:14;;;;;;;20.95;11.45;;;12.20;1.00;;;;;;4973342;28;20031;-85
2022/04/06 08:04:40;;;;;;;13.52;10.55;;;12.10;1.00;;;;;;4973265;28;20551;-85
2022/04/06 08:07:05;;;;;;;12.82;10.15;;;12.30;1.00;;;;;;4973456;28;20032;-85
2022/04/06 08:09:31;;;;;;;12.18;9.05;;;12.50;1.00;;;;;;4972582;28;20117;-85
2022/04/06 08:11:56;;;;;;;13.18;9.60;;;12.40;1.00;;;;;;4972760;28;20038;-85
2022/04/06 08:14:22;;;;;;;15.77;9.40;;;12.40;1.00;;;;;;4972936;28;20361;-85
2022/04/06 08:16:48;;;;;;;12.48;9.23;;;12.30;1.00;;;;;;4972432;28;20081;-85
2022/04/06 08:19:14;;;;;;;11.82;9.07;;;12.50;1.00;;;;;;4973496;28;20102;-85
2022/04/06 08:21:40;;;;;;;13.38;8.50;;;12.80;1.00;;;;;;4972889;28;20389;-85
2022/04/06 08:24:06;;;;;;;12.02;8.65;;;12.80;1.00;;;;;;4972312;28;20423;-84
2022/04/06 08:26:32;;;;;;;13.32;9.07;;;13.10;1.00;;;;;;4972689;28;20543;-84
2022/04/06 08:28:58;;;;;;;19.23;14.32;;;13.40;1.00;;;;;;4972032;28;20110;-85
2022/04/06 08:31:23;;;;;;;10.20;8.30;;;13.50;1.00;;;;;;4973243;28;20054;-85
2022/04/06 08:33:49;;;;;;;13.93;7.78;;;13.20;1.00;;;;;;4972724;28;20031;-84
2022/04/06 08:36:16;;;;;;;10.65;7.85;;;13.10;1.00;;;;;;4972467;28;20119;-85
2022/04/06 08:38:42;;;;;;;11.95;8.15;;;13.20;1.00;;;;;;4972103;28;20534;-85
2022/04/06 08:41:08;;;;;;;11.00;9.90;;;13.20;1.00;;;;;;4972231;28;20105;-85
2022/04/06 08:43:34;;;;;;;10.70;9.60;;;13.30;1.00;;;;;;4972073;28;20118;-85
2022/04/06 08:46:00;;;;;;;11.63;9.20;;;13.30;1.00;;;;;;4972501;28;20551;-85
2022/04/06 08:48:30;;;;;;;14.60;11.73;;;13.40;1.00;;;;;;4971660;28;20066;-85
2022/04/06 08:51:00;;;;;;;17.80;14.55;;;13.20;1.00;;;;;;4972015;28;20121;-85
2022/04/06 08:53:26;;;;;;;22.25;14.05;;;13.30;1.00;;;;;;4972064;28;20031;-85
2022/04/06 08:55:52;;;;;;;19.52;14.30;;;13.20;1.00;;;;;;4957559;28;20034;-85
2022/04/06 08:58:18;;;;;;;18.17;14.38;;;13.20;1.00;;;;;;4972326;28;20077;-85
2022/04/06 09:00:44;;;;;;;14.88;13.02;;;13.40;1.00;;;;;;4972237;28;20121;-85
2022/04/06 09:03:10;;;;;;;13.90;12.43;;;13.50;1.00;;;;;;4972285;28;20038;-85
2022/04/06 09:05:36;;;;;;;10.55;8.57;;;13.00;1.00;;;;;;4971896;28;20058;-85
2022/04/06 09:08:03;;;;;;;12.50;8.60;;;13.20;1.00;;;;;;4972342;28;20037;-85
2022/04/06 09:10:34;;;;;;;4.82;3.53;;;13.10;1.00;;;;;;4971901;28;20039;-85
2022/04/06 09:13:21;;;;;;;5.50;4.60;;;13.40;1.00;;;;;;4972012;28;20492;-85
2022/04/06 09:15:50;;;;;;;13.45;11.45;;;13.60;1.00;;;;;;4971894;28;20068;-85
2022/04/06 09:18:15;;;;;;;9.23;8.32;;;13.70;1.00;;;;;;4971821;28;20110;-85
2022/04/06 09:20:41;;;;;;;10.57;9.57;;;13.70;1.00;;;;;;4972160;28;20227;-85
2022/04/06 09:23:07;;;;;;;8.95;8.05;;;13.80;1.00;;;;;;4971857;28;20030;-85
2022/04/06 09:25:35;;;;;;;4.72;4.25;;;13.90;1.00;;;;;;4971965;28;20031;-85
2022/04/06 09:28:10;;;;;;;5.72;5.15;;;14.00;1.00;;;;;;4972231;28;20038;-84
2022/04/06 09:30:39;;;;;;;5.15;4.65;;;14.00;1.00;;;;;;4972017;28;20042;-85
2022/04/06 09:33:15;;;;;;;4.00;3.60;;;13.90;1.00;;;;;;4971552;28;20026;-85
2022/04/06 09:35:41;;;;;;;4.88;4.05;;;13.70;1.00;;;;;;4971885;28;20392;-84
2022/04/06 09:38:15;;;;;;;3.45;3.15;;;13.60;1.00;;;;;;4971758;28;20039;-85
2022/04/06 09:40:42;;;;;;;3.22;2.70;;;13.60;1.00;;;;;;4953944;28;20144;-85
2022/04/06 09:43:22;;;;;;;3.67;2.50;;;13.70;1.00;;;;;;4972235;28;20050;-85
2022/04/06 09:48:51;;;;;;;3.17;2.88;;;13.80;1.00;;;;;;4971552;28;20064;-85
2022/04/06 09:51:19;;;;;;;2.55;2.35;;;14.20;1.00;;;;;;4971337;28;20448;-85
2022/04/06 09:53:49;;;;;;;2.70;2.50;;;14.00;1.00;;;;;;4971887;28;20064;-85
2022/04/06 09:56:16;;;;;;;5.03;2.33;;;14.10;1.00;;;;;;4971461;28;20038;-85
2022/04/06 09:58:44;;;;;;;3.67;2.58;;;14.30;1.00;;;;;;4973439;28;20030;-85
2022/04/06 10:01:11;;;;;;;3.47;2.35;;;14.20;1.00;;;;;;4975751;28;20435;-84
2022/04/06 10:03:39;;;;;;;3.17;2.47;;;14.20;1.00;;;;;;4975507;28;20038;-85
2022/04/06 10:06:05;;;;;;;2.80;2.42;;;14.20;1.00;;;;;;4974817;28;20113;-85
2022/04/06 10:08:31;;;;;;;4.43;2.40;;;14.20;1.00;;;;;;4974726;28;20430;-85
2022/04/06 10:10:58;;;;;;;4.93;2.70;;;14.40;1.00;;;;;;4974767;28;20117;-85
2022/04/06 10:13:25;;;;;;;2.92;2.13;;;14.30;1.00;;;;;;4975655;28;20105;-85
2022/04/06 10:15:51;;;;;;;2.28;2.08;;;14.20;1.00;;;;;;4974980;28;20031;-85
2022/04/06 10:18:18;;;;;;;3.03;2.40;;;14.20;1.00;;;;;;4974535;28;20042;-85
2022/04/06 10:20:49;;;;;;;3.95;2.10;;;14.30;1.00;;;;;;4975120;28;20027;-85
2022/04/06 10:23:56;;;;;;;2.40;2.00;;;14.20;1.00;;;;;;4975276;28;20473;-85
2022/04/06 10:26:36;;;;;;;2.33;2.13;;;14.30;1.00;;;;;;4881513;29;20089;-85
2022/04/06 10:29:04;;;;;;;2.92;1.98;;;13.90;1.00;;;;;;4895731;29;20032;-85
2022/04/06 10:31:30;;;;;;;4.10;2.03;;;13.90;1.00;;;;;;4893888;29;20073;-85
2022/04/06 10:34:19;;;;;;;3.25;2.30;;;14.20;1.00;;;;;;4895357;29;20040;-85
2022/04/06 10:37:07;;;;;;;3.28;2.28;;;14.10;1.00;;;;;;4891774;29;20068;-85
2022/04/06 10:39:42;;;;;;;1.73;1.63;;;14.00;1.00;;;;;;4891537;29;20080;-85
2022/04/06 10:42:14;;;;;;;1.85;1.75;;;14.10;1.00;;;;;;4877515;29;20021;-85
2022/04/06 10:44:41;;;;;;;68.65;50.13;;;14.40;1.00;;;;;;4883036;29;20502;-85
2022/04/06 10:47:08;;;;;;;5.95;4.93;;;14.50;1.00;;;;;;4894935;29;20029;-85
2022/04/06 10:49:34;;;;;;;28.05;23.95;;;14.60;1.00;;;;;;4893364;29;20055;-85
2022/04/06 10:52:18;;;;;;;3.33;3.03;;;14.70;1.00;;;;;;4892141;29;20036;-85
2022/04/06 10:54:43;;;;;;;2.13;1.77;;;14.70;1.00;;;;;;4891297;29;20028;-85
2022/04/06 10:57:10;;;;;;;4.60;2.10;;;15.00;1.00;;;;;;4891542;29;20141;-85
2022/04/06 10:59:36;;;;;;;2.55;2.33;;;14.90;1.00;;;;;;4892123;29;20022;-85
2022/04/06 11:02:23;;;;;;;3.72;1.60;;;15.00;1.00;;;;;;4900783;28;20141;-85
2022/04/06 11:04:50;;;;;;;3.35;1.75;;;14.90;1.00;;;;;;4974327;28;20476;-84
2022/04/06 11:10:18;;;;;;;2.85;1.92;;;15.40;1.00;;;;;;4973981;28;20478;-85
2022/04/06 11:13:25;;;;;;;3.80;2.50;;;15.50;1.00;;;;;;4974418;28;20117;-85
2022/04/06 11:15:51;;;;;;;8.18;7.47;;;15.60;1.00;;;;;;4891217;29;20517;-85
2022/04/06 11:18:47;;;;;;;5.30;4.80;;;15.50;1.00;;;;;;4889065;29;20037;-85
2022/04/06 11:21:14;;;;;;;2.60;2.40;;;15.70;1.00;;;;;;4884896;29;20097;-85
2022/04/06 11:23:40;;;;;;;2.97;2.65;;;16.00;1.00;;;;;;4884120;29;20502;-85
2022/04/06 11:26:05;;;;;;;2.22;2.00;;;16.10;1.00;;;;;;4882305;29;20048;-85
2022/04/06 11:28:31;;;;;;;3.83;2.17;;;16.40;1.00;;;;;;4880730;29;20396;-85
2022/04/06 11:31:01;;;;;;;3.08;2.13;;;16.30;1.00;;;;;;4883833;29;20053;-85
2022/04/06 11:33:38;;;;;;;2.22;2.03;;;16.50;1.00;;;;;;4884365;29;20474;-85
2022/04/06 11:36:17;;;;;;;2.03;1.92;;;16.10;1.00;;;;;;4884731;29;20561;-85
2022/04/06 11:38:51;;;;;;;2.17;1.98;;;16.50;1.00;;;;;;4884591;29;20410;-85
2022/04/06 11:41:19;;;;;;;2.35;1.85;;;16.60;1.00;;;;;;4883206;29;20379;-85
2022/04/06 11:43:46;;;;;;;1.85;1.70;;;16.90;1.00;;;;;;4879671;29;20040;-85
2022/04/06 11:46:12;;;;;;;3.42;2.10;;;16.90;1.00;;;;;;4891227;29;20029;-85
2022/04/06 11:48:42;;;;;;;2.00;1.80;;;17.20;1.00;;;;;;4890086;29;20037;-85
2022/04/06 11:51:08;;;;;;;22.27;16.75;;;17.10;1.00;;;;;;4967173;28;20053;-85
2022/04/06 11:53:34;;;;;;;4.40;2.80;;;17.10;1.00;;;;;;4973158;28;20019;-85
2022/04/06 11:56:01;;;;;;;10.82;8.10;;;17.10;1.00;;;;;;4972974;28;20431;-85
2022/04/06 11:58:38;;;;;;;3.67;3.22;;;17.30;1.00;;;;;;4974031;28;20029;-86
2022/04/06 12:01:05;;;;;;;2.53;1.70;;;17.10;1.00;;;;;;4973340;28;20049;-85
2022/04/06 12:03:32;;;;;;;2.38;1.80;;;17.00;1.00;;;;;;4972878;28;20107;-85
2022/04/06 12:05:58;;;;;;;4.32;1.77;;;16.70;1.00;;;;;;4972441;28;20053;-85
2022/04/06 12:08:24;;;;;;;91.47;63.95;;;16.10;1.00;;;;;;4973049;28;20039;-85
2022/04/06 12:10:51;;;;;;;16.20;11.90;;;16.40;1.00;;;;;;4973144;28;20047;-85
2022/04/06 12:13:18;;;;;;;2.53;2.33;;;16.40;1.00;;;;;;4973429;28;20034;-85
2022/04/06 12:15:48;;;;;;;1.70;1.60;;;16.20;1.00;;;;;;4972479;28;20031;-85
2022/04/06 12:18:18;;;;;;;6.40;5.80;;;16.10;1.00;;;;;;4972871;28;20027;-85
2022/04/06 12:20:44;;;;;;;3.72;2.25;;;16.40;1.00;;;;;;4972271;28;20066;-85
2022/04/06 12:23:10;;;;;;;2.03;1.45;;;16.40;1.00;;;;;;4972613;28;20050;-85
2022/04/06 12:25:36;;;;;;;6.32;5.72;;;16.50;1.00;;;;;;4972653;28;20027;-85
2022/04/06 12:28:18;;;;;;;10.23;9.20;;;16.50;1.00;;;;;;4973846;28;20472;-85
2022/04/06 12:30:51;;;;;;;2.65;2.20;;;16.10;1.00;;;;;;4972079;28;20042;-85
2022/04/06 12:33:34;;;;;;;1.63;1.52;;;16.00;1.00;;;;;;4972124;28;20519;-85
2022/04/06 12:36:23;;;;;;;1.52;1.42;;;16.10;1.00;;;;;;4972373;28;20073;-84
2022/04/06 12:39:08;;;;;;;3.38;1.30;;;16.00;1.00;;;;;;4972009;28;20093;-85
2022/04/06 12:41:50;;;;;;;5.25;4.78;;;16.00;1.00;;;;;;4972563;28;20400;-85
2022/04/06 12:44:16;;;;;;;2.80;2.20;;;16.20;1.00;;;;;;4971974;28;20121;-85
2022/04/06 12:46:42;;;;;;;1.58;1.35;;;15.90;1.00;;;;;;4972634;28;20158;-85
2022/04/06 12:49:23;;;;;;;1.48;1.30;;;16.00;1.00;;;;;;4972372;28;20488;-85
2022/04/06 12:52:09;;;;;;;2.88;1.50;;;16.20;1.00;;;;;;4971828;28;20134;-85
2022/04/06 12:54:37;;;;;;;1.67;1.58;;;16.30;1.00;;;;;;4972074;28;20034;-85
2022/04/06 12:57:06;;;;;;;2.20;1.90;;;16.20;1.00;;;;;;4971835;28;20399;-85